Time;durP1;ratioP1;P1;durP2;ratioP2;P2;SDS_P1;SDS_P2;PMS_P1;PMS_P2;Temp;Humidity;BMP_temperature;BMP_pressure;BME280_temperature;BME280_humidity;BME280_pressure;Samples;Min_cycle;Max_cycle;Signal;HPM_P1;HPM_P2
2022/01/14 00:02:05;;;;;;;1.40;1.10;;;;;;;;;;4404251;32;20035;-50
2022/01/14 00:04:33;;;;;;;0.80;0.80;;;;;;;;;;4405860;32;20441;-52
2022/01/14 00:07:02;;;;;;;1.60;0.90;;;;;;;;;;4407620;32;20042;-50
2022/01/14 00:09:31;;;;;;;2.15;0.93;;;;;;;;;;4415794;32;20084;-51
2022/01/14 00:12:03;;;;;;;1.30;0.90;;;;;;;;;;4415025;32;20038;-51
2022/01/14 00:17:08;;;;;;;1.17;1.00;;;;;;;;;;4409996;32;20054;-51
2022/01/14 00:19:37;;;;;;;1.48;1.00;;;;;;;;;;4414606;32;20148;-50
2022/01/14 00:22:11;;;;;;;2.15;0.98;;;;;;;;;;4409998;32;20038;-50
2022/01/14 00:33:05;;;;;;;2.08;1.10;;;;;;;;;;4408734;32;20461;-53
2022/01/14 00:35:35;;;;;;;1.10;1.00;;;;;;;;;;4403463;32;20030;-53
2022/01/14 00:38:03;;;;;;;1.75;1.15;;;;;;;;;;4409437;32;20091;-53
2022/01/14 00:40:33;;;;;;;2.97;1.20;;;;;;;;;;4416091;32;20335;-50
2022/01/14 00:43:01;;;;;;;1.73;1.10;;;;;;;;;;4408684;32;20388;-54
2022/01/14 00:45:30;;;;;;;1.90;1.02;;;;;;;;;;4415555;32;20087;-53
2022/01/14 00:48:00;;;;;;;5.68;1.35;;;;;;;;;;4407974;32;20092;-50
2022/01/14 00:50:29;;;;;;;1.95;1.10;;;;;;;;;;4415187;32;20080;-52
2022/01/14 00:52:57;;;;;;;1.73;1.12;;;;;;;;;;4413128;32;20498;-53
2022/01/14 00:55:27;;;;;;;2.15;1.00;;;;;;;;;;4407573;32;20374;-53
2022/01/14 01:00:34;;;;;;;4.05;1.23;;;;;;;;;;4412455;32;20620;-53
2022/01/14 01:03:03;;;;;;;1.58;1.20;;;;;;;;;;4411306;32;20046;-50
2022/01/14 01:05:32;;;;;;;2.17;1.00;;;;;;;;;;4410374;32;20054;-54
2022/01/14 01:08:12;;;;;;;2.87;1.20;;;;;;;;;;4410991;32;20381;-50
2022/01/14 01:10:48;;;;;;;2.58;1.08;;;;;;;;;;4411986;32;20407;-51
2022/01/14 01:13:31;;;;;;;2.87;1.20;;;;;;;;;;4408615;32;20046;-52
2022/01/14 01:16:00;;;;;;;6.87;1.10;;;;;;;;;;4412869;32;20046;-51
2022/01/14 01:18:28;;;;;;;1.23;0.88;;;;;;;;;;4409588;32;20124;-53
2022/01/14 01:20:57;;;;;;;4.20;1.02;;;;;;;;;;4411854;32;20480;-53
2022/01/14 01:23:26;;;;;;;2.83;1.05;;;;;;;;;;4407336;32;20078;-51
2022/01/14 01:26:03;;;;;;;4.45;1.30;;;;;;;;;;4407061;32;20031;-50
2022/01/14 01:28:39;;;;;;;3.12;1.17;;;;;;;;;;4407996;32;20050;-53
2022/01/14 01:31:35;;;;;;;4.20;1.23;;;;;;;;;;4418921;32;20045;-53
2022/01/14 01:33:56;;;;;;;2.50;1.08;;;;;;;;;;4400976;32;20081;-53
2022/01/14 01:36:24;;;;;;;4.03;1.10;;;;;;;;;;4407959;32;20027;-53
2022/01/14 01:38:52;;;;;;;2.85;1.08;;;;;;;;;;4412151;32;20083;-53
2022/01/14 01:41:21;;;;;;;4.12;1.10;;;;;;;;;;4415306;32;20038;-53
2022/01/14 01:43:54;;;;;;;1.65;0.90;;;;;;;;;;4415946;32;20038;-51
2022/01/14 01:46:23;;;;;;;2.90;0.80;;;;;;;;;;4413772;32;20426;-52
2022/01/14 01:48:52;;;;;;;2.03;1.20;;;;;;;;;;4405844;32;20043;-52
2022/01/14 01:51:21;;;;;;;2.28;1.00;;;;;;;;;;4409282;32;20052;-50
2022/01/14 01:53:50;;;;;;;2.17;0.90;;;;;;;;;;4409086;32;20051;-53
2022/01/14 01:56:18;;;;;;;4.57;1.12;;;;;;;;;;4420747;32;20088;-52
2022/01/14 01:58:46;;;;;;;3.47;0.82;;;;;;;;;;4413181;32;20043;-52
2022/01/14 02:01:15;;;;;;;3.30;1.25;;;;;;;;;;4408715;32;20027;-51
2022/01/14 02:03:44;;;;;;;4.37;1.20;;;;;;;;;;4408195;32;20041;-51
2022/01/14 02:06:13;;;;;;;1.73;0.90;;;;;;;;;;4415938;32;20046;-50
2022/01/14 02:08:41;;;;;;;2.25;0.93;;;;;;;;;;4411514;32;20454;-54
2022/01/14 02:11:09;;;;;;;3.28;1.00;;;;;;;;;;4409061;32;20400;-52
2022/01/14 02:13:38;;;;;;;3.65;1.10;;;;;;;;;;4416411;32;20369;-53
2022/01/14 02:18:49;;;;;;;5.47;1.23;;;;;;;;;;4415516;32;20038;-50
2022/01/14 02:24:35;;;;;;;4.80;1.23;;;;;;;;;;4419469;32;20062;-53
2022/01/14 02:26:56;;;;;;;1.52;0.90;;;;;;;;;;4411742;32;20031;-53
2022/01/14 02:29:25;;;;;;;4.57;1.20;;;;;;;;;;4411813;32;20027;-52
2022/01/14 02:31:53;;;;;;;3.87;1.12;;;;;;;;;;4411887;32;20065;-53
2022/01/14 02:34:22;;;;;;;3.30;1.00;;;;;;;;;;4417038;32;20098;-53
2022/01/14 02:36:51;;;;;;;3.30;1.25;;;;;;;;;;4408957;32;20045;-53
2022/01/14 02:39:20;;;;;;;4.43;1.00;;;;;;;;;;4410523;32;20070;-49
2022/01/14 02:41:50;;;;;;;4.45;1.23;;;;;;;;;;4412459;32;20119;-53
2022/01/14 02:44:26;;;;;;;4.20;1.40;;;;;;;;;;4415991;32;20085;-49
2022/01/14 02:46:58;;;;;;;2.25;0.98;;;;;;;;;;4412837;32;20408;-53
2022/01/14 02:49:30;;;;;;;1.77;0.90;;;;;;;;;;4408363;32;20394;-52
2022/01/14 02:52:02;;;;;;;2.87;1.10;;;;;;;;;;4409361;32;20156;-50
2022/01/14 02:54:39;;;;;;;1.73;0.85;;;;;;;;;;4412306;32;20061;-52
2022/01/14 02:57:09;;;;;;;3.70;1.15;;;;;;;;;;4407039;32;20054;-50
2022/01/14 02:59:39;;;;;;;4.55;1.40;;;;;;;;;;4406060;32;20035;-52
2022/01/14 03:02:09;;;;;;;4.25;1.15;;;;;;;;;;4414662;32;20042;-52
2022/01/14 03:04:39;;;;;;;4.12;1.20;;;;;;;;;;4409609;32;20065;-51
2022/01/14 03:07:08;;;;;;;3.60;1.23;;;;;;;;;;4416111;32;20034;-53
2022/01/14 03:09:38;;;;;;;2.72;1.25;;;;;;;;;;4411979;32;20031;-53
2022/01/14 03:12:08;;;;;;;4.68;1.00;;;;;;;;;;4411208;32;20047;-51
2022/01/14 03:14:36;;;;;;;3.12;1.02;;;;;;;;;;4409686;32;20335;-50
2022/01/14 03:17:04;;;;;;;5.60;1.33;;;;;;;;;;4408462;32;20428;-52
2022/01/14 03:19:33;;;;;;;6.10;1.40;;;;;;;;;;4409752;32;20043;-51
2022/01/14 03:22:19;;;;;;;4.75;1.10;;;;;;;;;;4410091;32;20366;-59
2022/01/14 03:27:16;;;;;;;5.95;1.33;;;;;;;;;;4405461;32;20098;-50
2022/01/14 03:29:44;;;;;;;4.93;1.23;;;;;;;;;;4417372;32;20396;-50
2022/01/14 03:32:13;;;;;;;8.88;1.80;;;;;;;;;;4408957;32;20061;-50
2022/01/14 03:34:41;;;;;;;4.60;1.58;;;;;;;;;;4415066;32;20060;-50
2022/01/14 03:37:10;;;;;;;3.08;1.20;;;;;;;;;;4409513;32;20030;-50
2022/01/14 03:39:38;;;;;;;3.50;1.17;;;;;;;;;;4404226;32;20369;-50
2022/01/14 03:42:07;;;;;;;3.58;1.00;;;;;;;;;;4415371;32;20022;-53
2022/01/14 03:44:35;;;;;;;2.72;0.98;;;;;;;;;;4417374;32;20057;-51
2022/01/14 03:47:05;;;;;;;2.78;1.05;;;;;;;;;;4406230;32;20308;-49
2022/01/14 03:49:33;;;;;;;3.37;1.20;;;;;;;;;;4419280;32;20097;-50
2022/01/14 03:52:02;;;;;;;2.80;1.10;;;;;;;;;;4416547;32;20092;-50
2022/01/14 03:54:31;;;;;;;3.90;1.17;;;;;;;;;;4406515;32;20078;-51
2022/01/14 03:56:59;;;;;;;2.12;0.90;;;;;;;;;;4411397;32;20088;-52
2022/01/14 03:59:27;;;;;;;2.45;1.00;;;;;;;;;;4405864;32;20035;-50
2022/01/14 04:01:56;;;;;;;5.65;1.17;;;;;;;;;;4416857;32;20061;-52
2022/01/14 04:04:25;;;;;;;5.00;1.27;;;;;;;;;;4409306;32;20050;-51
2022/01/14 04:06:53;;;;;;;2.17;1.02;;;;;;;;;;4418253;32;20043;-50
2022/01/14 04:09:21;;;;;;;5.45;1.25;;;;;;;;;;4408804;32;20372;-52
2022/01/14 04:11:50;;;;;;;4.97;1.20;;;;;;;;;;4409348;32;20106;-50
2022/01/14 04:16:53;;;;;;;3.37;1.10;;;;;;;;;;4405472;32;20061;-51
2022/01/14 04:19:21;;;;;;;6.60;1.10;;;;;;;;;;4409417;32;20035;-52
2022/01/14 04:21:49;;;;;;;3.83;1.20;;;;;;;;;;4415495;32;20042;-50
2022/01/14 04:24:18;;;;;;;5.18;1.40;;;;;;;;;;4416138;32;20042;-53
2022/01/14 04:26:47;;;;;;;6.65;1.27;;;;;;;;;;4412945;32;20042;-51
2022/01/14 04:29:15;;;;;;;4.65;1.20;;;;;;;;;;4409878;32;20446;-52
2022/01/14 04:31:44;;;;;;;6.12;1.00;;;;;;;;;;4400330;32;20030;-53
2022/01/14 04:34:15;;;;;;;3.97;1.12;;;;;;;;;;4402919;32;20026;-52
2022/01/14 04:36:44;;;;;;;3.40;1.23;;;;;;;;;;4414224;32;20415;-50
2022/01/14 04:39:12;;;;;;;3.28;1.02;;;;;;;;;;4413122;32;20085;-51
2022/01/14 04:41:40;;;;;;;7.90;1.55;;;;;;;;;;4413834;32;20054;-51
2022/01/14 04:44:14;;;;;;;3.05;1.17;;;;;;;;;;4404194;32;20046;-50
2022/01/14 04:49:10;;;;;;;6.37;1.33;;;;;;;;;;4410490;32;20114;-50
2022/01/14 04:51:39;;;;;;;5.45;1.42;;;;;;;;;;4407587;32;20093;-51
2022/01/14 04:54:07;;;;;;;4.25;1.40;;;;;;;;;;4407218;32;20053;-53
2022/01/14 04:56:36;;;;;;;4.45;1.25;;;;;;;;;;4411922;32;20433;-53
2022/01/14 04:59:04;;;;;;;3.62;1.20;;;;;;;;;;4409484;32;20354;-51
2022/01/14 05:01:33;;;;;;;4.70;1.20;;;;;;;;;;4410037;32;20083;-51
2022/01/14 05:04:01;;;;;;;7.25;1.50;;;;;;;;;;4414879;32;20035;-53
2022/01/14 05:06:30;;;;;;;6.35;1.40;;;;;;;;;;4404034;32;20464;-52
2022/01/14 05:08:59;;;;;;;4.85;1.20;;;;;;;;;;4410967;32;20449;-53
2022/01/14 05:11:38;;;;;;;4.12;1.30;;;;;;;;;;4406206;32;20091;-50
2022/01/14 05:14:07;;;;;;;7.25;1.48;;;;;;;;;;4415507;32;20022;-50
2022/01/14 05:16:35;;;;;;;5.30;1.23;;;;;;;;;;4412697;32;20065;-51
2022/01/14 05:19:03;;;;;;;4.22;1.10;;;;;;;;;;4407699;32;20414;-49
2022/01/14 05:21:32;;;;;;;2.87;1.40;;;;;;;;;;4409622;32;20057;-50
2022/01/14 05:24:00;;;;;;;3.05;1.30;;;;;;;;;;4413610;32;20038;-50
2022/01/14 05:26:28;;;;;;;4.87;1.30;;;;;;;;;;4418902;32;20068;-53
2022/01/14 05:28:57;;;;;;;4.37;0.82;;;;;;;;;;4413345;32;20031;-50
2022/01/14 05:31:41;;;;;;;5.62;1.05;;;;;;;;;;4409824;32;20132;-51
2022/01/14 05:34:10;;;;;;;4.62;1.15;;;;;;;;;;4415322;32;20123;-51
2022/01/14 05:36:38;;;;;;;6.72;1.77;;;;;;;;;;4407815;32;20034;-49
2022/01/14 05:39:07;;;;;;;4.25;1.30;;;;;;;;;;4419684;32;20361;-53
2022/01/14 05:41:36;;;;;;;5.65;1.35;;;;;;;;;;4413320;32;20998;-51
2022/01/14 05:44:05;;;;;;;4.62;1.27;;;;;;;;;;4413890;32;20065;-50
2022/01/14 05:46:33;;;;;;;4.43;1.30;;;;;;;;;;4412280;32;20060;-50
2022/01/14 05:49:02;;;;;;;3.00;1.27;;;;;;;;;;4418351;32;20097;-51
2022/01/14 05:51:30;;;;;;;7.90;1.58;;;;;;;;;;4408323;32;20043;-51
2022/01/14 05:53:59;;;;;;;9.50;1.37;;;;;;;;;;4415719;32;20068;-51
2022/01/14 05:56:27;;;;;;;9.15;1.50;;;;;;;;;;4411149;32;20410;-51
2022/01/14 05:58:55;;;;;;;9.77;1.50;;;;;;;;;;4412212;32;20039;-51
2022/01/14 06:01:23;;;;;;;10.18;1.33;;;;;;;;;;4420438;32;20114;-51
2022/01/14 06:03:52;;;;;;;4.95;1.33;;;;;;;;;;4420642;32;20047;-52
2022/01/14 06:06:20;;;;;;;8.32;1.52;;;;;;;;;;4413289;32;20381;-51
2022/01/14 06:08:49;;;;;;;6.75;1.70;;;;;;;;;;4415189;32;20055;-52
2022/01/14 06:11:18;;;;;;;7.90;1.83;;;;;;;;;;4414904;32;20027;-50
2022/01/14 06:13:46;;;;;;;7.45;1.70;;;;;;;;;;4412407;32;20031;-50
2022/01/14 06:16:15;;;;;;;8.88;1.52;;;;;;;;;;4407286;32;20042;-51
2022/01/14 06:18:44;;;;;;;4.18;1.30;;;;;;;;;;4408469;32;20411;-54
2022/01/14 06:21:12;;;;;;;6.47;1.65;;;;;;;;;;4407579;32;20183;-52
2022/01/14 06:23:40;;;;;;;4.87;1.20;;;;;;;;;;4410754;32;20046;-50
2022/01/14 06:26:24;;;;;;;6.60;1.53;;;;;;;;;;4415140;32;20042;-51
2022/01/14 06:28:53;;;;;;;8.23;1.65;;;;;;;;;;4412652;32;20128;-50
2022/01/14 06:31:21;;;;;;;6.07;1.52;;;;;;;;;;4414504;32;20323;-52
2022/01/14 06:33:50;;;;;;;7.35;1.45;;;;;;;;;;4418479;32;20090;-50
2022/01/14 06:36:18;;;;;;;7.50;1.67;;;;;;;;;;4411943;32;20038;-52
2022/01/14 06:38:46;;;;;;;5.53;1.55;;;;;;;;;;4417391;32;20060;-51
2022/01/14 06:41:15;;;;;;;10.10;1.70;;;;;;;;;;4415707;32;20042;-50
2022/01/14 06:43:44;;;;;;;5.80;1.50;;;;;;;;;;4414695;32;20039;-50
2022/01/14 06:46:12;;;;;;;7.50;1.20;;;;;;;;;;4407135;32;20076;-50
2022/01/14 06:48:41;;;;;;;8.88;1.73;;;;;;;;;;4410663;32;20037;-50
2022/01/14 06:51:14;;;;;;;6.68;1.90;;;;;;;;;;4412861;32;20057;-51
2022/01/14 06:53:46;;;;;;;8.02;1.58;;;;;;;;;;4407425;32;20081;-50
2022/01/14 06:56:15;;;;;;;4.95;1.20;;;;;;;;;;4408684;32;20061;-52
2022/01/14 06:58:44;;;;;;;6.22;1.35;;;;;;;;;;4414168;32;20124;-53
2022/01/14 07:01:13;;;;;;;5.62;1.37;;;;;;;;;;4412841;32;20418;-50
2022/01/14 07:03:41;;;;;;;7.47;1.67;;;;;;;;;;4411775;32;20063;-50
2022/01/14 07:06:10;;;;;;;6.68;1.45;;;;;;;;;;4410114;32;20089;-49
2022/01/14 07:08:38;;;;;;;9.45;1.92;;;;;;;;;;4406777;32;20045;-52
2022/01/14 07:11:07;;;;;;;4.37;1.27;;;;;;;;;;4408867;32;20039;-50
2022/01/14 07:13:35;;;;;;;5.53;1.37;;;;;;;;;;4406295;32;20062;-50
2022/01/14 07:16:04;;;;;;;6.22;1.50;;;;;;;;;;4409325;32;20046;-52
2022/01/14 07:18:33;;;;;;;8.40;1.65;;;;;;;;;;4406356;32;20332;-50
2022/01/14 07:21:01;;;;;;;9.25;1.52;;;;;;;;;;4405111;32;20035;-53
2022/01/14 07:23:30;;;;;;;6.32;1.62;;;;;;;;;;4412478;32;20064;-50
2022/01/14 07:25:58;;;;;;;7.45;1.87;;;;;;;;;;4412834;32;20458;-52
2022/01/14 07:28:27;;;;;;;6.03;1.48;;;;;;;;;;4412452;32;20050;-50
2022/01/14 07:30:55;;;;;;;7.32;1.52;;;;;;;;;;4406352;32;20042;-52
2022/01/14 07:33:23;;;;;;;3.08;1.00;;;;;;;;;;4410727;32;20057;-50
2022/01/14 07:35:52;;;;;;;7.85;1.60;;;;;;;;;;4412164;32;20430;-50
2022/01/14 07:38:20;;;;;;;5.15;1.35;;;;;;;;;;4411958;32;20168;-50
2022/01/14 07:40:48;;;;;;;6.53;1.62;;;;;;;;;;4416435;32;20079;-52
2022/01/14 07:43:19;;;;;;;6.07;1.33;;;;;;;;;;4411742;32;20050;-52
2022/01/14 07:45:48;;;;;;;9.82;1.23;;;;;;;;;;4409095;32;20064;-50
2022/01/14 07:48:16;;;;;;;7.35;1.45;;;;;;;;;;4412254;32;20473;-49
2022/01/14 07:50:45;;;;;;;10.50;1.73;;;;;;;;;;4414763;32;20039;-50
2022/01/14 07:53:13;;;;;;;6.07;1.50;;;;;;;;;;4408340;32;20066;-49
2022/01/14 07:55:41;;;;;;;9.02;1.42;;;;;;;;;;4408875;32;20497;-50
2022/01/14 07:58:10;;;;;;;8.15;1.65;;;;;;;;;;4409648;32;20130;-49
2022/01/14 08:00:39;;;;;;;6.32;1.62;;;;;;;;;;4417417;32;20035;-52
2022/01/14 08:03:08;;;;;;;5.47;1.50;;;;;;;;;;4407922;32;20088;-50
2022/01/14 08:05:36;;;;;;;5.35;1.10;;;;;;;;;;4402468;32;20041;-50
2022/01/14 08:08:07;;;;;;;7.87;1.75;;;;;;;;;;4404084;32;20086;-52
2022/01/14 08:10:37;;;;;;;5.95;1.42;;;;;;;;;;4411865;32;20031;-49
2022/01/14 08:13:05;;;;;;;5.70;1.50;;;;;;;;;;4408825;32;20054;-50
2022/01/14 08:15:33;;;;;;;6.05;1.23;;;;;;;;;;4408444;32;23349;-49
2022/01/14 08:18:02;;;;;;;5.53;1.40;;;;;;;;;;4408429;32;20049;-53
2022/01/14 08:20:31;;;;;;;6.32;1.62;;;;;;;;;;4417165;32;20142;-50
2022/01/14 08:22:59;;;;;;;7.00;1.50;;;;;;;;;;4405794;32;20042;-52
2022/01/14 08:25:28;;;;;;;6.53;1.20;;;;;;;;;;4413733;32;20061;-53
2022/01/14 08:27:56;;;;;;;5.60;1.37;;;;;;;;;;4409210;32;20459;-49
2022/01/14 08:30:24;;;;;;;7.47;1.60;;;;;;;;;;4407599;32;20418;-52
2022/01/14 08:32:53;;;;;;;4.87;1.35;;;;;;;;;;4401040;32;20535;-51
2022/01/14 08:35:21;;;;;;;9.77;2.00;;;;;;;;;;4405455;32;20049;-53
2022/01/14 08:37:50;;;;;;;5.95;1.40;;;;;;;;;;4409879;32;20458;-53
2022/01/14 08:40:18;;;;;;;8.73;1.45;;;;;;;;;;4401242;32;20038;-49
2022/01/14 08:42:52;;;;;;;5.55;1.35;;;;;;;;;;4407745;32;20043;-49
2022/01/14 08:45:21;;;;;;;8.23;1.23;;;;;;;;;;4402417;32;20475;-53
2022/01/14 08:47:53;;;;;;;8.30;1.60;;;;;;;;;;4397835;32;20083;-52
2022/01/14 08:50:23;;;;;;;5.97;1.65;;;;;;;;;;4409088;32;20039;-49
2022/01/14 08:52:52;;;;;;;7.03;1.52;;;;;;;;;;4409052;32;20070;-51
2022/01/14 08:55:20;;;;;;;7.78;1.48;;;;;;;;;;4408794;32;20091;-53
2022/01/14 08:57:49;;;;;;;5.87;1.35;;;;;;;;;;4411928;32;20038;-53
2022/01/14 09:00:18;;;;;;;5.35;1.30;;;;;;;;;;4402614;32;20050;-53
2022/01/14 09:02:53;;;;;;;5.50;1.55;;;;;;;;;;4410889;32;20082;-49
2022/01/14 09:05:23;;;;;;;5.68;1.48;;;;;;;;;;4410307;32;20417;-50
2022/01/14 09:07:52;;;;;;;4.55;1.15;;;;;;;;;;4404009;32;20374;-49
2022/01/14 09:10:21;;;;;;;4.35;1.40;;;;;;;;;;4402718;32;20156;-53
2022/01/14 09:12:49;;;;;;;8.68;1.48;;;;;;;;;;4416211;32;20414;-51
2022/01/14 09:15:18;;;;;;;7.43;1.80;;;;;;;;;;4415157;32;20049;-49
2022/01/14 09:17:47;;;;;;;4.43;1.48;;;;;;;;;;4410418;32;20035;-51
2022/01/14 09:20:15;;;;;;;6.12;1.70;;;;;;;;;;4407573;32;20095;-53
2022/01/14 09:22:48;;;;;;;3.50;1.27;;;;;;;;;;4413194;32;20412;-49
2022/01/14 09:25:18;;;;;;;10.70;1.85;;;;;;;;;;4418624;32;20056;-50
2022/01/14 09:27:49;;;;;;;5.87;1.52;;;;;;;;;;4415165;32;20049;-50
2022/01/14 09:30:17;;;;;;;4.93;1.27;;;;;;;;;;4418024;32;20492;-51
2022/01/14 09:32:46;;;;;;;8.75;1.70;;;;;;;;;;4412351;32;20060;-51
2022/01/14 09:35:14;;;;;;;7.93;1.42;;;;;;;;;;4411457;32;20068;-50
2022/01/14 09:37:45;;;;;;;6.40;1.37;;;;;;;;;;4402382;32;20030;-50
2022/01/14 09:40:16;;;;;;;6.12;1.35;;;;;;;;;;4411838;32;20416;-50
2022/01/14 09:42:48;;;;;;;6.53;1.70;;;;;;;;;;4411024;32;20054;-52
2022/01/14 09:45:18;;;;;;;7.07;1.48;;;;;;;;;;4413682;32;20107;-49
2022/01/14 09:47:48;;;;;;;5.30;1.35;;;;;;;;;;4406856;32;20030;-50
2022/01/14 09:50:18;;;;;;;6.95;1.45;;;;;;;;;;4411810;32;20076;-49
2022/01/14 09:52:49;;;;;;;5.60;1.42;;;;;;;;;;4410732;32;20118;-52
2022/01/14 09:55:19;;;;;;;5.47;1.45;;;;;;;;;;4409800;32;20083;-49
2022/01/14 09:57:48;;;;;;;6.22;1.45;;;;;;;;;;4411463;32;20083;-50
2022/01/14 10:00:16;;;;;;;6.03;1.50;;;;;;;;;;4419215;32;20097;-51
2022/01/14 10:02:46;;;;;;;6.03;1.77;;;;;;;;;;4420464;32;20068;-51
2022/01/14 10:05:33;;;;;;;5.22;1.50;;;;;;;;;;4419386;32;20074;-50
2022/01/14 10:08:19;;;;;;;5.43;1.50;;;;;;;;;;4415991;32;20060;-51
2022/01/14 10:10:49;;;;;;;7.75;1.67;;;;;;;;;;4408780;32;20057;-52
2022/01/14 10:13:23;;;;;;;6.62;1.60;;;;;;;;;;4416764;32;20086;-50
2022/01/14 10:15:52;;;;;;;6.12;1.55;;;;;;;;;;4412569;32;20452;-52
2022/01/14 10:18:22;;;;;;;4.35;1.40;;;;;;;;;;4409527;32;20086;-49
2022/01/14 10:20:51;;;;;;;6.72;1.75;;;;;;;;;;4415374;32;20096;-50
2022/01/14 10:23:38;;;;;;;6.12;1.02;;;;;;;;;;4414440;32;20085;-51
2022/01/14 10:26:07;;;;;;;6.00;1.45;;;;;;;;;;4419297;32;20046;-49
2022/01/14 10:28:36;;;;;;;6.78;1.33;;;;;;;;;;4418174;32;20046;-49
2022/01/14 10:31:05;;;;;;;7.62;1.60;;;;;;;;;;4413658;32;20050;-50
2022/01/14 10:33:34;;;;;;;6.18;1.50;;;;;;;;;;4405044;32;20031;-49
2022/01/14 10:36:03;;;;;;;5.87;1.35;;;;;;;;;;4414882;32;20026;-51
2022/01/14 10:38:39;;;;;;;9.52;1.70;;;;;;;;;;4406043;32;20031;-50
2022/01/14 10:41:09;;;;;;;5.97;1.60;;;;;;;;;;4403888;32;20062;-49
2022/01/14 10:43:45;;;;;;;7.45;1.33;;;;;;;;;;4409294;32;20051;-49
2022/01/14 10:46:13;;;;;;;5.62;1.45;;;;;;;;;;4402540;32;20094;-51
2022/01/14 10:48:46;;;;;;;5.25;1.80;;;;;;;;;;4409299;32;20081;-51
2022/01/14 10:51:17;;;;;;;8.82;1.52;;;;;;;;;;4416920;32;20368;-50
2022/01/14 10:53:53;;;;;;;8.57;1.65;;;;;;;;;;4414369;32;20051;-48
2022/01/14 10:56:28;;;;;;;6.62;1.30;;;;;;;;;;4408877;32;20088;-49
2022/01/14 10:58:59;;;;;;;7.78;1.52;;;;;;;;;;4409484;32;20038;-49
2022/01/14 11:01:29;;;;;;;8.05;1.40;;;;;;;;;;4412332;32;20061;-49
2022/01/14 11:04:00;;;;;;;6.93;1.40;;;;;;;;;;4409528;32;20084;-50
2022/01/14 11:06:31;;;;;;;7.28;1.40;;;;;;;;;;4403996;32;20384;-50
2022/01/14 11:09:00;;;;;;;6.62;1.62;;;;;;;;;;4407237;32;20418;-49
2022/01/14 11:11:30;;;;;;;7.87;1.45;;;;;;;;;;4405206;32;20064;-50
2022/01/14 11:13:58;;;;;;;5.35;1.42;;;;;;;;;;4414116;32;20061;-49
2022/01/14 11:16:27;;;;;;;10.27;1.80;;;;;;;;;;4410970;32;20046;-53
2022/01/14 11:18:59;;;;;;;6.53;1.80;;;;;;;;;;4412688;32;20030;-50
2022/01/14 11:24:16;;;;;;;7.07;1.77;;;;;;;;;;4408917;32;20046;-50
2022/01/14 11:26:46;;;;;;;4.78;1.50;;;;;;;;;;4408094;32;20092;-50
2022/01/14 11:29:16;;;;;;;5.12;1.80;;;;;;;;;;4406925;32;20042;-50
2022/01/14 11:31:45;;;;;;;4.82;1.27;;;;;;;;;;4412900;32;20038;-52
2022/01/14 11:34:34;;;;;;;5.65;1.65;;;;;;;;;;4408747;32;20047;-49
2022/01/14 11:37:10;;;;;;;7.62;1.58;;;;;;;;;;4409144;32;20389;-49
2022/01/14 11:39:40;;;;;;;9.65;1.83;;;;;;;;;;4413422;32;20046;-52
2022/01/14 11:42:12;;;;;;;6.53;1.87;;;;;;;;;;4410239;32;20384;-51
2022/01/14 11:44:44;;;;;;;9.57;2.17;;;;;;;;;;4410038;32;20092;-53
2022/01/14 11:47:22;;;;;;;7.05;1.70;;;;;;;;;;4409734;32;20522;-49
2022/01/14 11:49:51;;;;;;;9.30;2.53;;;;;;;;;;4410942;32;20091;-50
2022/01/14 11:52:40;;;;;;;8.25;1.98;;;;;;;;;;4412573;32;20030;-50
2022/01/14 11:55:24;;;;;;;6.70;1.85;;;;;;;;;;4402596;32;20043;-50
2022/01/14 11:57:55;;;;;;;8.73;2.07;;;;;;;;;;4406968;32;20072;-49
2022/01/14 12:00:27;;;;;;;9.73;1.85;;;;;;;;;;4413319;32;20176;-50
2022/01/14 12:03:09;;;;;;;11.40;1.92;;;;;;;;;;4405478;32;20030;-50
2022/01/14 12:05:38;;;;;;;9.65;2.10;;;;;;;;;;4411295;32;20437;-51
2022/01/14 12:08:12;;;;;;;5.40;1.62;;;;;;;;;;4407790;32;20038;-51
2022/01/14 12:10:51;;;;;;;7.47;1.90;;;;;;;;;;4408100;32;20403;-49
2022/01/14 12:13:27;;;;;;;9.30;2.00;;;;;;;;;;4410876;32;20039;-50
2022/01/14 12:16:04;;;;;;;8.23;2.00;;;;;;;;;;4412515;32;20048;-49
2022/01/14 12:18:51;;;;;;;6.22;2.08;;;;;;;;;;4416330;32;20468;-50
2022/01/14 12:21:19;;;;;;;12.52;2.20;;;;;;;;;;4414777;32;20064;-49
2022/01/14 12:23:48;;;;;;;8.85;2.17;;;;;;;;;;4404890;32;20292;-49
2022/01/14 12:26:18;;;;;;;11.45;2.03;;;;;;;;;;4416196;32;20047;-50
2022/01/14 12:28:47;;;;;;;8.85;2.37;;;;;;;;;;4406104;32;20044;-49
2022/01/14 12:31:15;;;;;;;8.77;2.20;;;;;;;;;;4417385;32;20039;-49
2022/01/14 12:33:45;;;;;;;13.05;2.30;;;;;;;;;;4422631;32;20045;-52
2022/01/14 12:36:15;;;;;;;7.32;2.17;;;;;;;;;;4417276;32;20050;-50
2022/01/14 12:38:44;;;;;;;9.00;2.10;;;;;;;;;;4401764;32;20027;-49
2022/01/14 12:41:15;;;;;;;8.30;1.65;;;;;;;;;;4407626;32;20425;-51
2022/01/14 12:43:58;;;;;;;10.25;2.33;;;;;;;;;;4402216;32;20050;-50
2022/01/14 12:47:01;;;;;;;9.13;2.08;;;;;;;;;;4405707;32;20072;-49
2022/01/14 12:49:23;;;;;;;12.60;2.45;;;;;;;;;;4412397;32;20077;-51
2022/01/14 12:52:03;;;;;;;13.75;2.30;;;;;;;;;;4408995;32;20365;-49
2022/01/14 12:54:33;;;;;;;11.23;2.33;;;;;;;;;;4411374;32;20077;-51
2022/01/14 12:57:02;;;;;;;13.48;2.72;;;;;;;;;;4403984;32;20113;-53
2022/01/14 12:59:40;;;;;;;11.45;2.40;;;;;;;;;;4407614;32;20086;-50
2022/01/14 13:02:08;;;;;;;13.02;2.60;;;;;;;;;;4416932;32;20039;-50
2022/01/14 13:04:37;;;;;;;8.82;2.28;;;;;;;;;;4409321;32;20049;-51
2022/01/14 13:07:07;;;;;;;12.98;2.53;;;;;;;;;;4402805;32;20046;-48
2022/01/14 13:09:37;;;;;;;9.50;2.20;;;;;;;;;;4401395;32;20054;-51
2022/01/14 13:12:07;;;;;;;8.88;2.42;;;;;;;;;;4406557;32;20460;-49
2022/01/14 13:14:40;;;;;;;8.93;2.62;;;;;;;;;;4406560;32;20035;-50
2022/01/14 13:17:14;;;;;;;12.27;2.42;;;;;;;;;;4401464;32;20078;-49
2022/01/14 13:19:43;;;;;;;16.10;2.85;;;;;;;;;;4406902;32;20093;-52
2022/01/14 13:22:16;;;;;;;9.50;2.20;;;;;;;;;;4406816;32;20112;-49
2022/01/14 13:24:46;;;;;;;12.57;2.95;;;;;;;;;;4409595;32;20077;-49
2022/01/14 13:27:20;;;;;;;13.27;2.78;;;;;;;;;;4412300;32;20411;-51
2022/01/14 13:29:49;;;;;;;13.57;2.90;;;;;;;;;;4408407;32;20058;-51
2022/01/14 13:32:19;;;;;;;13.48;3.40;;;;;;;;;;4396556;32;20061;-50
2022/01/14 13:34:56;;;;;;;21.15;3.95;;;;;;;;;;4404632;32;20030;-49
2022/01/14 13:37:26;;;;;;;21.17;3.45;;;;;;;;;;4408639;32;20139;-50
2022/01/14 13:40:01;;;;;;;23.90;4.68;;;;;;;;;;4414247;32;20042;-50
2022/01/14 13:42:30;;;;;;;21.30;3.83;;;;;;;;;;4414743;32;20054;-49
2022/01/14 13:45:09;;;;;;;21.95;4.40;;;;;;;;;;4418398;32;20418;-50
2022/01/14 13:47:40;;;;;;;20.75;3.90;;;;;;;;;;4410050;32;20089;-50
2022/01/14 13:50:10;;;;;;;25.73;3.75;;;;;;;;;;4410565;32;20062;-49
2022/01/14 13:52:42;;;;;;;19.92;3.78;;;;;;;;;;4405400;32;21026;-49
2022/01/14 13:55:11;;;;;;;22.83;3.90;;;;;;;;;;4411936;32;20411;-49
2022/01/14 13:57:41;;;;;;;22.00;3.37;;;;;;;;;;4408346;32;20047;-50
2022/01/14 14:00:11;;;;;;;25.67;4.50;;;;;;;;;;4416415;32;20076;-51
2022/01/14 14:02:48;;;;;;;21.35;4.55;;;;;;;;;;4421383;32;20483;-52
2022/01/14 14:05:36;;;;;;;20.17;4.35;;;;;;;;;;4410543;32;20042;-50
2022/01/14 14:08:11;;;;;;;26.62;5.03;;;;;;;;;;4411125;32;20051;-50
2022/01/14 14:11:49;;;;;;;20.12;4.00;;;;;;;;;;4408817;32;20208;-52
2022/01/14 14:16:26;;;;;;;31.87;5.07;;;;;;;;;;4406031;32;20046;-51
2022/01/14 14:18:56;;;;;;;23.48;4.90;;;;;;;;;;4408204;32;20108;-49
2022/01/14 14:21:28;;;;;;;27.02;4.82;;;;;;;;;;4408648;32;20035;-53
2022/01/14 14:23:58;;;;;;;27.85;5.28;;;;;;;;;;4415829;32;20039;-49
2022/01/14 14:26:31;;;;;;;30.83;5.15;;;;;;;;;;4413070;32;20030;-50
2022/01/14 14:29:20;;;;;;;28.00;5.60;;;;;;;;;;4410176;32;20365;-53
2022/01/14 14:31:48;;;;;;;23.30;4.93;;;;;;;;;;4405472;32;20061;-50
2022/01/14 14:34:17;;;;;;;27.05;5.50;;;;;;;;;;4407454;32;20035;-50
2022/01/14 14:36:45;;;;;;;27.55;4.78;;;;;;;;;;4403501;32;20472;-49
2022/01/14 14:39:13;;;;;;;30.02;5.68;;;;;;;;;;4410279;32;20035;-49
2022/01/14 14:41:42;;;;;;;28.05;5.40;;;;;;;;;;4415572;32;20042;-49
2022/01/14 14:44:10;;;;;;;33.45;5.55;;;;;;;;;;4403727;32;20417;-50
2022/01/14 14:46:42;;;;;;;34.75;5.60;;;;;;;;;;4411602;32;20058;-51
2022/01/14 14:49:11;;;;;;;35.22;6.18;;;;;;;;;;4412308;32;20034;-51
2022/01/14 14:51:39;;;;;;;34.45;5.82;;;;;;;;;;4418498;32;20105;-52
2022/01/14 14:54:07;;;;;;;31.70;5.55;;;;;;;;;;4410618;32;20060;-51
2022/01/14 14:56:36;;;;;;;36.95;6.20;;;;;;;;;;4412245;32;20101;-50
2022/01/14 14:59:04;;;;;;;32.38;6.40;;;;;;;;;;4414530;32;20037;-49
2022/01/14 15:01:33;;;;;;;36.17;6.60;;;;;;;;;;4413249;32;20093;-51
2022/01/14 15:04:02;;;;;;;32.40;6.12;;;;;;;;;;4413222;32;20354;-49
2022/01/14 15:06:30;;;;;;;30.45;6.22;;;;;;;;;;4410257;32;20411;-50
2022/01/14 15:08:58;;;;;;;30.30;6.00;;;;;;;;;;4415594;32;20026;-51
2022/01/14 15:11:27;;;;;;;34.85;6.25;;;;;;;;;;4415474;32;20400;-51
2022/01/14 15:13:55;;;;;;;34.03;6.07;;;;;;;;;;4409926;32;20058;-50
2022/01/14 15:16:36;;;;;;;36.10;6.75;;;;;;;;;;4410710;32;20046;-49
2022/01/14 15:19:05;;;;;;;38.00;7.12;;;;;;;;;;4406841;32;20422;-50
2022/01/14 15:21:33;;;;;;;40.25;7.53;;;;;;;;;;4402888;32;20070;-51
2022/01/14 15:24:01;;;;;;;41.13;7.37;;;;;;;;;;4411487;32;20034;-52
2022/01/14 15:26:32;;;;;;;40.00;7.93;;;;;;;;;;4416557;32;20405;-49
2022/01/14 15:29:00;;;;;;;36.50;7.10;;;;;;;;;;4413515;32;20053;-49
2022/01/14 15:31:28;;;;;;;42.60;7.10;;;;;;;;;;4404005;32;20054;-49
2022/01/14 15:33:59;;;;;;;42.03;7.30;;;;;;;;;;4402771;32;20076;-50